Time;durP1;ratioP1;P1;durP2;ratioP2;P2;SDS_P1;SDS_P2;PMS_P1;PMS_P2;Temp;Humidity;BMP_temperature;BMP_pressure;BME280_temperature;BME280_humidity;BME280_pressure;Samples;Min_cycle;Max_cycle;Signal;HPM_P1;HPM_P2
2022/01/22 00:00:53;;;;;;;11.55;3.95;;;;;;;-4.57;71.69;94945.66;5061499;28;20248;-73
2022/01/22 00:03:20;;;;;;;5.78;3.28;;;;;;;-4.63;72.05;94942.06;5069526;28;20218;-73
2022/01/22 00:05:48;;;;;;;8.38;3.40;;;;;;;-4.66;71.56;94937.25;5069226;28;20202;-74
2022/01/22 00:08:15;;;;;;;4.10;2.75;;;;;;;-4.56;72.41;94934.06;5091858;28;20198;-74
2022/01/22 00:10:44;;;;;;;6.93;2.55;;;;;;;-4.61;71.00;94934.72;5091471;28;20364;-74
2022/01/22 00:15:57;;;;;;;1.35;1.25;;;;;;;-4.53;69.76;94931.78;5091623;28;20205;-74
2022/01/22 00:18:24;;;;;;;2.40;1.58;;;;;;;-4.47;70.42;94943.28;5091536;28;20249;-74
2022/01/22 00:20:51;;;;;;;2.13;1.60;;;;;;;-4.46;71.47;94937.75;5078647;28;20227;-75
2022/01/22 00:23:20;;;;;;;2.35;1.23;;;;;;;-4.42;71.19;94938.94;5070984;28;20566;-75
2022/01/22 00:25:47;;;;;;;2.97;1.42;;;;;;;-4.47;70.52;94936.16;5070605;28;20218;-74
2022/01/22 00:28:14;;;;;;;2.65;0.93;;;;;;;-4.40;69.61;94942.16;5071560;28;20219;-74
2022/01/22 00:30:41;;;;;;;1.45;0.90;;;;;;;-4.54;69.86;94935.47;5084373;28;20302;-74
2022/01/22 00:33:09;;;;;;;4.03;1.58;;;;;;;-4.55;70.74;94939.13;5090657;28;20522;-74
2022/01/22 00:35:36;;;;;;;2.55;1.63;;;;;;;-4.48;71.13;94929.25;5076704;28;20546;-73
2022/01/22 00:38:04;;;;;;;4.63;0.98;;;;;;;-4.47;70.51;94933.50;5070365;28;20234;-73
2022/01/22 00:40:30;;;;;;;5.35;2.33;;;;;;;-4.66;70.22;94927.50;5071304;28;20205;-74
2022/01/22 00:42:57;;;;;;;7.97;2.97;;;;;;;-4.50;70.77;94928.66;5071380;28;20751;-73
2022/01/22 00:45:24;;;;;;;4.97;2.40;;;;;;;-4.49;70.44;94935.56;5072075;28;20378;-73
2022/01/22 00:47:51;;;;;;;3.97;2.40;;;;;;;-4.52;70.76;94927.31;5071902;28;20258;-74
2022/01/22 00:50:22;;;;;;;4.35;2.55;;;;;;;-4.52;70.39;94930.75;5071816;28;20215;-74
2022/01/22 00:52:49;;;;;;;2.22;1.02;;;;;;;-4.54;69.75;94939.94;5079892;28;20237;-73
2022/01/22 00:55:17;;;;;;;1.45;1.35;;;;;;;-4.52;69.36;94936.03;5092126;28;20233;-73
2022/01/22 00:57:44;;;;;;;4.93;1.55;;;;;;;-4.57;68.95;94935.09;5092305;28;20206;-73
2022/01/22 01:00:13;;;;;;;0.85;0.73;;;;;;;-4.53;69.51;94939.72;5062541;28;20219;-73
2022/01/22 01:02:41;;;;;;;2.20;1.15;;;;;;;-4.49;70.17;94940.84;5072134;28;20207;-72
2022/01/22 01:05:11;;;;;;;3.15;1.58;;;;;;;-4.55;69.69;94933.84;5070956;28;20681;-73
2022/01/22 01:07:40;;;;;;;1.25;0.80;;;;;;;-4.69;70.14;94930.59;5072047;28;20218;-73
2022/01/22 01:10:10;;;;;;;1.65;1.15;;;;;;;-4.67;69.60;94925.88;5071575;28;20227;-74
2022/01/22 01:12:39;;;;;;;2.63;1.55;;;;;;;-4.63;70.24;94930.69;5071625;28;20214;-74
2022/01/22 01:15:16;;;;;;;2.05;1.42;;;;;;;-4.56;70.62;94926.94;5071147;28;20214;-73
2022/01/22 01:18:04;;;;;;;1.88;1.13;;;;;;;-4.51;71.89;94921.75;5071723;28;20227;-73
2022/01/22 01:34:18;;;;;;;4.15;1.80;;;;;;;-4.45;68.78;94898.91;5091666;28;20204;-74
2022/01/22 01:36:45;;;;;;;0.60;0.60;;;;;;;-4.34;69.03;94898.94;5091451;28;20748;-74
2022/01/22 01:39:18;;;;;;;1.33;1.23;;;;;;;-4.31;68.87;94895.03;5091014;28;20230;-74
2022/01/22 01:41:51;;;;;;;1.02;0.68;;;;;;;-4.40;69.21;94899.84;5090967;28;20221;-73
2022/01/22 01:44:19;;;;;;;2.58;1.10;;;;;;;-4.43;68.87;94900.31;5091202;28;20684;-72
2022/01/22 01:46:49;;;;;;;1.60;1.10;;;;;;;-4.43;69.02;94899.50;5091188;28;20600;-75
2022/01/22 01:49:16;;;;;;;1.73;0.90;;;;;;;-4.40;69.26;94891.94;5091209;28;20673;-73
2022/01/22 01:51:44;;;;;;;2.13;1.00;;;;;;;-4.26;69.88;94895.16;5091265;28;20269;-73
2022/01/22 01:54:26;;;;;;;1.10;0.82;;;;;;;-4.32;69.07;94885.47;5091412;28;20264;-73
2022/01/22 01:59:41;;;;;;;1.75;1.15;;;;;;;-4.28;69.95;94885.84;5070403;28;20230;-73
2022/01/22 02:02:08;;;;;;;1.13;0.75;;;;;;;-4.31;69.21;94872.03;5071193;28;20211;-73
2022/01/22 02:04:35;;;;;;;3.75;0.95;;;;;;;-4.23;68.30;94883.28;5083142;28;20239;-72
2022/01/22 02:07:02;;;;;;;8.18;0.80;;;;;;;-4.24;68.55;94887.81;5090791;28;20266;-74
2022/01/22 02:09:29;;;;;;;3.90;1.38;;;;;;;-4.20;67.79;94888.13;5091395;28;20222;-73
2022/01/22 02:12:04;;;;;;;2.40;0.90;;;;;;;-4.06;68.58;94887.69;5090305;28;20216;-73
2022/01/22 02:25:32;;;;;;;1.48;0.95;;;;;;;-3.71;67.16;94877.06;5070616;28;20593;-73
2022/01/22 02:28:01;;;;;;;0.70;0.55;;;;;;;-3.77;67.72;94875.34;5088251;28;20210;-73
2022/01/22 02:30:31;;;;;;;0.60;0.60;;;;;;;-3.75;67.03;94864.53;5090185;28;20542;-73
2022/01/22 02:33:09;;;;;;;2.03;0.90;;;;;;;-3.95;67.49;94876.28;5090271;28;20689;-73
2022/01/22 02:35:43;;;;;;;1.55;0.80;;;;;;;-3.95;68.05;94870.19;5090794;28;20319;-73
2022/01/22 02:38:17;;;;;;;3.33;0.90;;;;;;;-4.01;66.73;94865.84;5090876;28;20202;-73
2022/01/22 02:40:48;;;;;;;0.52;0.52;;;;;;;-4.08;66.29;94865.13;5090795;28;20232;-74
2022/01/22 02:43:16;;;;;;;2.25;1.25;;;;;;;-4.23;66.15;94856.84;5089900;28;20237;-73
2022/01/22 02:45:46;;;;;;;3.97;1.02;;;;;;;-4.38;67.56;94866.06;5090223;28;20233;-73
2022/01/22 02:48:13;;;;;;;1.13;0.70;;;;;;;-4.38;67.24;94855.50;5090706;28;20247;-74
2022/01/22 02:50:41;;;;;;;0.70;0.70;;;;;;;-4.42;67.19;94864.91;5090764;28;20268;-74
2022/01/22 02:53:10;;;;;;;2.33;0.98;;;;;;;-4.46;67.68;94858.47;5090515;28;20221;-74
2022/01/22 02:55:39;;;;;;;3.30;1.10;;;;;;;-4.39;66.99;94864.47;5090786;28;20202;-73
2022/01/22 02:58:06;;;;;;;8.93;1.15;;;;;;;-4.54;66.92;94863.28;5072832;28;20258;-73
2022/01/22 03:00:34;;;;;;;3.70;0.98;;;;;;;-4.43;68.21;94867.78;5061060;28;20206;-74
2022/01/22 03:03:01;;;;;;;0.60;0.60;;;;;;;-4.51;67.38;94860.19;5058892;28;20211;-74
2022/01/22 03:05:28;;;;;;;0.75;0.73;;;;;;;-4.58;69.28;94865.56;5072576;28;20699;-74
2022/01/22 03:07:57;;;;;;;0.63;0.63;;;;;;;-4.67;68.42;94857.19;5074213;28;20203;-74
2022/01/22 03:10:26;;;;;;;3.63;1.27;;;;;;;-4.46;68.74;94860.28;5059987;28;20653;-74
2022/01/22 03:13:14;;;;;;;5.88;1.23;;;;;;;-4.50;67.63;94849.38;5073696;28;20210;-74
2022/01/22 03:18:45;;;;;;;1.17;0.70;;;;;;;-4.66;67.75;94842.13;5087341;28;20238;-74
2022/01/22 03:21:28;;;;;;;2.85;0.90;;;;;;;-4.60;68.97;94833.28;5092661;28;20234;-74
2022/01/22 03:29:33;;;;;;;1.92;1.25;;;;;;;-4.79;67.58;94821.22;5073571;28;20561;-74
2022/01/22 03:32:00;;;;;;;1.08;0.70;;;;;;;-4.82;67.81;94816.38;5073368;28;20191;-74
2022/01/22 03:34:29;;;;;;;2.45;1.42;;;;;;;-4.85;68.32;94816.81;5090457;28;20203;-73
2022/01/22 03:36:56;;;;;;;2.05;0.93;;;;;;;-4.62;68.15;94822.13;5093943;28;20233;-73
2022/01/22 03:39:23;;;;;;;1.67;0.70;;;;;;;-4.59;67.59;94821.69;5093395;28;20616;-73
2022/01/22 03:41:52;;;;;;;0.47;0.45;;;;;;;-4.57;67.70;94813.53;5093753;28;20357;-73
2022/01/22 03:44:19;;;;;;;1.33;0.93;;;;;;;-4.71;67.08;94810.31;5074465;28;20231;-73
2022/01/22 03:46:48;;;;;;;1.23;0.88;;;;;;;-4.73;68.28;94809.72;5073229;28;20769;-73
2022/01/22 03:49:16;;;;;;;2.40;1.15;;;;;;;-4.71;67.44;94808.47;5073330;28;20215;-73
2022/01/22 03:51:44;;;;;;;6.53;0.85;;;;;;;-4.68;67.38;94812.50;5073211;28;20268;-73
2022/01/22 03:54:11;;;;;;;3.05;0.88;;;;;;;-4.68;68.03;94815.13;5073052;28;20330;-73
2022/01/22 03:56:41;;;;;;;4.95;1.38;;;;;;;-4.57;66.75;94809.03;5073114;28;20203;-72
2022/01/22 03:59:07;;;;;;;1.52;0.98;;;;;;;-4.43;66.86;94802.50;5072734;28;20321;-73
2022/01/22 04:04:24;;;;;;;1.75;0.95;;;;;;;-4.27;66.01;94802.84;5072999;28;20769;-73
2022/01/22 04:07:21;;;;;;;1.85;1.25;;;;;;;-4.28;64.81;94794.09;5073192;28;20286;-73
2022/01/22 04:09:49;;;;;;;1.65;0.88;;;;;;;-4.07;66.61;94804.06;5072569;28;20226;-72
2022/01/22 04:12:23;;;;;;;0.70;0.70;;;;;;;-3.98;65.80;94815.91;5073004;28;20207;-72
2022/01/22 04:14:56;;;;;;;2.17;1.00;;;;;;;-3.94;65.94;94811.75;5075251;28;20195;-72
2022/01/22 04:17:38;;;;;;;1.23;0.93;;;;;;;-3.86;65.75;94805.31;5092305;28;20265;-73
2022/01/22 04:25:41;;;;;;;1.65;0.63;;;;;;;-4.01;65.95;94807.63;5071913;28;20675;-73
2022/01/22 04:28:09;;;;;;;1.95;0.98;;;;;;;-4.05;65.64;94807.28;5072784;28;20245;-73
2022/01/22 04:30:36;;;;;;;3.35;0.90;;;;;;;-4.21;65.38;94796.63;5072385;28;20622;-72
2022/01/22 04:33:04;;;;;;;1.85;1.10;;;;;;;-4.26;66.12;94784.09;5077923;28;20210;-74
2022/01/22 04:35:33;;;;;;;2.03;1.13;;;;;;;-4.25;66.36;94782.28;5091626;28;20730;-74
2022/01/22 04:38:00;;;;;;;0.98;0.77;;;;;;;-4.16;66.43;94778.22;5092257;28;20276;-73
2022/01/22 04:40:27;;;;;;;2.13;1.05;;;;;;;-4.24;67.40;94786.53;5091659;28;20242;-74
2022/01/22 04:42:54;;;;;;;1.38;0.63;;;;;;;-4.25;66.38;94790.19;5092497;28;20230;-74
2022/01/22 04:45:29;;;;;;;0.50;0.47;;;;;;;-4.18;67.40;94785.56;5078309;28;20265;-73
2022/01/22 04:48:10;;;;;;;3.42;0.82;;;;;;;-4.06;68.18;94781.06;5071392;28;20740;-73
2022/01/22 04:56:07;;;;;;;1.25;0.95;;;;;;;-4.14;68.24;94781.44;5092196;28;20213;-73
2022/01/22 04:58:34;;;;;;;1.15;1.02;;;;;;;-4.24;68.59;94776.75;5086726;28;20228;-73
2022/01/22 05:01:01;;;;;;;1.33;0.82;;;;;;;-4.35;68.88;94775.72;5061370;28;20596;-72
2022/01/22 05:03:28;;;;;;;1.65;0.77;;;;;;;-4.27;68.34;94764.00;5070740;28;20217;-73
2022/01/22 05:05:56;;;;;;;3.00;1.45;;;;;;;-4.28;68.15;94764.22;5070844;28;20661;-74
2022/01/22 05:08:23;;;;;;;1.58;0.88;;;;;;;-4.13;67.65;94751.31;5070825;28;20227;-73
2022/01/22 05:10:50;;;;;;;0.70;0.70;;;;;;;-4.15;66.43;94763.97;5071523;28;20207;-73
2022/01/22 05:13:16;;;;;;;4.05;0.93;;;;;;;-4.27;66.83;94765.81;5071896;28;20219;-73
2022/01/22 05:15:43;;;;;;;3.20;0.93;;;;;;;-4.10;67.68;94777.31;5071310;28;20203;-73
2022/01/22 05:18:11;;;;;;;1.30;1.08;;;;;;;-4.13;66.52;94762.69;5069429;28;20243;-73
2022/01/22 05:20:45;;;;;;;1.55;0.75;;;;;;;-3.99;66.77;94757.97;5071010;28;20252;-74
2022/01/22 05:23:17;;;;;;;3.00;1.30;;;;;;;-4.14;68.47;94766.38;5072547;28;20222;-72
2022/01/22 05:25:49;;;;;;;2.65;1.23;;;;;;;-3.99;66.54;94757.97;5071558;28;20661;-72
2022/01/22 05:31:09;;;;;;;3.85;1.00;;;;;;;-3.93;66.92;94762.28;5083969;28;20264;-72
2022/01/22 05:39:11;;;;;;;1.10;0.85;;;;;;;-3.98;67.21;94754.28;5084668;28;20683;-72
2022/01/22 05:41:39;;;;;;;2.97;1.23;;;;;;;-3.94;69.36;94755.41;5071229;28;20223;-72
2022/01/22 05:44:06;;;;;;;1.25;0.90;;;;;;;-4.11;68.43;94762.47;5070861;28;20309;-72
2022/01/22 05:46:34;;;;;;;1.85;0.60;;;;;;;-4.08;68.82;94765.44;5071061;28;20222;-72
2022/01/22 05:49:01;;;;;;;1.88;1.08;;;;;;;-4.16;68.73;94759.72;5070045;28;20213;-72
2022/01/22 05:51:28;;;;;;;3.42;1.52;;;;;;;-4.10;69.48;94767.50;5071264;28;20238;-72
2022/01/22 05:54:18;;;;;;;1.42;0.93;;;;;;;-3.94;68.83;94758.03;5071000;28;20229;-72
2022/01/22 05:59:37;;;;;;;5.60;2.50;;;;;;;-4.11;69.00;94770.41;5061483;28;20232;-72
2022/01/22 06:02:05;;;;;;;3.30;0.90;;;;;;;-4.07;68.88;94766.22;5080476;28;20669;-74
2022/01/22 06:04:32;;;;;;;2.35;1.38;;;;;;;-4.05;69.35;94757.03;5062145;28;20211;-73
2022/01/22 06:06:59;;;;;;;0.63;0.57;;;;;;;-3.98;69.14;94748.97;5075484;28;20256;-71
2022/01/22 06:09:26;;;;;;;1.58;1.13;;;;;;;-3.96;68.86;94749.53;5090982;28;20694;-74
2022/01/22 06:11:57;;;;;;;3.05;1.05;;;;;;;-3.75;68.21;94750.75;5090563;28;20750;-72
2022/01/22 06:14:24;;;;;;;2.08;0.93;;;;;;;-3.94;68.46;94750.09;5091250;28;20225;-71
2022/01/22 06:16:51;;;;;;;3.95;1.67;;;;;;;-3.94;68.10;94752.75;5090129;28;20205;-71
2022/01/22 06:19:18;;;;;;;0.93;0.88;;;;;;;-3.90;68.88;94748.59;5077621;28;20249;-72
2022/01/22 06:21:45;;;;;;;4.30;1.63;;;;;;;-4.01;68.87;94744.16;5071520;28;20199;-71
2022/01/22 06:24:12;;;;;;;1.75;0.90;;;;;;;-3.79;68.31;94741.66;5070327;28;20248;-74
2022/01/22 06:26:39;;;;;;;5.53;0.90;;;;;;;-4.00;68.37;94743.13;5070709;28;20203;-72
2022/01/22 06:29:07;;;;;;;1.10;0.70;;;;;;;-3.89;68.30;94744.94;5070534;28;20210;-73
2022/01/22 06:31:35;;;;;;;1.98;0.75;;;;;;;-3.86;67.16;94755.03;5090015;28;20205;-73
2022/01/22 06:34:02;;;;;;;9.07;1.20;;;;;;;-3.99;67.80;94750.81;5090524;28;20203;-72
2022/01/22 06:36:30;;;;;;;4.20;1.35;;;;;;;-4.02;68.67;94747.84;5090096;28;20630;-73
2022/01/22 06:39:09;;;;;;;3.97;1.35;;;;;;;-3.85;67.58;94753.19;5090709;28;20206;-73
2022/01/22 06:41:44;;;;;;;2.78;1.50;;;;;;;-3.82;67.11;94742.94;5094015;28;20502;-75
2022/01/22 06:44:13;;;;;;;1.95;1.17;;;;;;;-3.89;66.51;94746.75;5094295;28;20232;-75
2022/01/22 06:46:41;;;;;;;5.18;1.50;;;;;;;-3.91;67.01;94739.06;5094262;28;20202;-76
2022/01/22 06:49:08;;;;;;;2.25;1.33;;;;;;;-4.02;67.50;94737.25;5094350;28;20241;-75
2022/01/22 06:51:35;;;;;;;2.35;0.98;;;;;;;-3.72;68.07;94732.56;5093010;28;20237;-75
2022/01/22 06:54:02;;;;;;;1.00;0.90;;;;;;;-3.77;66.35;94729.81;5094665;28;20229;-75
2022/01/22 06:56:30;;;;;;;2.03;1.15;;;;;;;-3.61;65.71;94734.34;5093705;28;20237;-76
2022/01/22 06:58:58;;;;;;;3.33;1.65;;;;;;;-3.64;66.53;94731.38;5083089;28;20195;-77
2022/01/22 07:01:27;;;;;;;0.57;0.57;;;;;;;-3.61;66.23;94734.34;5066077;28;20230;-75
2022/01/22 07:03:55;;;;;;;7.43;2.75;;;;;;;-3.47;66.82;94723.47;5073818;28;20206;-75
2022/01/22 07:06:22;;;;;;;9.98;1.42;;;;;;;-3.41;66.29;94728.59;5073566;28;20230;-75
2022/01/22 07:08:49;;;;;;;3.60;1.60;;;;;;;-3.53;66.92;94735.00;5060574;28;20202;-75
2022/01/22 07:11:17;;;;;;;1.42;0.95;;;;;;;-3.71;66.82;94723.59;5087105;28;20825;-75
2022/01/22 07:13:44;;;;;;;1.88;0.95;;;;;;;-3.52;65.88;94731.31;5073727;28;20261;-73
2022/01/22 07:16:11;;;;;;;1.73;0.90;;;;;;;-3.62;66.03;94732.75;5086108;28;20214;-74
2022/01/22 07:18:39;;;;;;;4.85;1.70;;;;;;;-3.58;65.56;94728.59;5092719;28;20245;-73
2022/01/22 07:21:14;;;;;;;1.80;1.42;;;;;;;-3.35;65.36;94729.50;5091050;28;20240;-75
2022/01/22 07:24:23;;;;;;;3.58;1.67;;;;;;;-3.21;64.82;94722.88;5072419;28;20202;-73
2022/01/22 07:26:43;;;;;;;1.40;1.20;;;;;;;-2.87;64.00;94716.50;5073204;28;20201;-72
2022/01/22 07:29:11;;;;;;;2.38;1.45;;;;;;;-2.87;63.61;94724.47;5073394;28;20269;-73
2022/01/22 07:31:39;;;;;;;3.30;1.45;;;;;;;-2.51;62.95;94727.66;5073746;28;20294;-74
2022/01/22 07:34:07;;;;;;;1.00;0.88;;;;;;;-2.75;64.60;94711.16;5073828;28;20234;-74
2022/01/22 07:36:34;;;;;;;4.55;1.42;;;;;;;-2.58;64.08;94716.41;5073073;28;20199;-74
2022/01/22 07:39:01;;;;;;;2.35;1.35;;;;;;;-2.55;64.72;94710.63;5073762;28;20224;-73
2022/01/22 07:41:28;;;;;;;2.53;1.70;;;;;;;-2.58;64.67;94705.78;5073197;28;20234;-73
2022/01/22 07:43:55;;;;;;;2.22;1.33;;;;;;;-1.95;64.14;94693.88;5073372;28;20219;-73
2022/01/22 07:46:22;;;;;;;3.20;1.63;;;;;;;-1.92;64.16;94698.72;5072861;28;20202;-76
2022/01/22 07:48:49;;;;;;;2.20;1.35;;;;;;;-1.56;62.69;94698.03;5073636;28;20207;-74
2022/01/22 07:51:18;;;;;;;2.38;1.38;;;;;;;-1.38;61.21;94694.22;5072615;28;20293;-75
2022/01/22 07:53:45;;;;;;;2.83;1.70;;;;;;;-1.76;61.55;94695.16;5073007;28;20225;-75
2022/01/22 07:56:13;;;;;;;6.93;1.77;;;;;;;-2.10;62.56;94696.34;5082540;28;20226;-74
2022/01/22 07:58:40;;;;;;;2.00;0.98;;;;;;;-2.41;62.65;94701.28;5076833;28;20577;-73
2022/01/22 08:01:07;;;;;;;2.03;1.08;;;;;;;-2.63;63.89;94706.56;5072828;28;20235;-75
2022/01/22 08:03:34;;;;;;;2.75;1.90;;;;;;;-2.87;64.04;94703.25;5082518;28;20199;-76
2022/01/22 08:06:00;;;;;;;4.03;1.45;;;;;;;-2.70;63.73;94707.75;5093226;28;20219;-75
2022/01/22 08:08:29;;;;;;;3.97;0.75;;;;;;;-2.22;63.01;94684.03;5098207;28;20206;-74
2022/01/22 08:10:56;;;;;;;2.08;0.90;;;;;;;-2.23;62.31;94690.38;5074827;28;20257;-74
2022/01/22 08:13:23;;;;;;;2.22;1.13;;;;;;;-2.23;62.35;94687.72;5072929;28;20203;-75
2022/01/22 08:15:50;;;;;;;1.15;0.82;;;;;;;-2.39;64.34;94699.19;5083632;28;20209;-76
2022/01/22 08:18:16;;;;;;;2.17;1.05;;;;;;;-2.26;64.03;94693.50;5081312;28;20242;-75
2022/01/22 08:20:43;;;;;;;1.02;0.75;;;;;;;-2.29;63.22;94678.09;5072420;28;20230;-76
2022/01/22 08:23:10;;;;;;;2.17;1.38;;;;;;;-2.24;62.92;94675.50;5072849;28;20672;-75
2022/01/22 08:25:42;;;;;;;3.53;2.03;;;;;;;-2.16;61.72;94672.41;5070805;28;20195;-74
2022/01/22 08:30:55;;;;;;;3.58;1.05;;;;;;;-2.46;61.90;94674.66;5071359;28;20998;-75
2022/01/22 08:36:03;;;;;;;1.45;0.77;;;;;;;-2.22;60.39;94678.72;5052557;28;20206;-75
2022/01/22 08:38:32;;;;;;;2.65;1.00;;;;;;;-2.06;60.71;94665.63;5072586;28;20222;-77
2022/01/22 08:41:00;;;;;;;1.80;1.20;;;;;;;-2.11;60.83;94668.22;5070677;28;20700;-75
2022/01/22 08:43:28;;;;;;;2.35;1.70;;;;;;;-2.02;61.71;94670.19;5071325;28;20231;-76
2022/01/22 08:45:55;;;;;;;7.38;1.55;;;;;;;-2.00;60.53;94667.28;5071033;28;20683;-77
2022/01/22 08:48:23;;;;;;;2.00;1.10;;;;;;;-2.13;62.63;94665.00;5070709;28;20202;-78
2022/01/22 08:50:51;;;;;;;4.05;2.20;;;;;;;-1.89;62.07;94666.34;5070703;28;20258;-74
2022/01/22 08:53:18;;;;;;;3.65;1.00;;;;;;;-1.86;61.85;94665.84;5083941;28;20267;-77
2022/01/22 08:55:44;;;;;;;0.80;0.63;;;;;;;-1.83;62.13;94660.06;5091216;28;20248;-73
2022/01/22 08:58:14;;;;;;;3.00;1.63;;;;;;;-1.88;61.23;94662.63;5083662;28;20688;-75
2022/01/22 09:00:41;;;;;;;1.02;0.90;;;;;;;-2.04;61.91;94671.47;5070482;28;20229;-76
2022/01/22 09:03:09;;;;;;;3.00;1.15;;;;;;;-2.08;62.45;94665.88;5069626;28;20210;-74
2022/01/22 09:05:37;;;;;;;1.45;1.08;;;;;;;-1.91;61.89;94673.75;5072765;28;20753;-75
2022/01/22 09:08:05;;;;;;;6.85;1.35;;;;;;;-1.57;61.41;94667.22;5070222;28;20225;-76
2022/01/22 09:10:32;;;;;;;1.80;1.10;;;;;;;-1.70;61.27;94672.94;5070388;28;20192;-79
2022/01/22 09:12:59;;;;;;;1.92;1.00;;;;;;;-1.64;60.97;94668.47;5071001;28;20236;-75
2022/01/22 09:15:28;;;;;;;4.50;1.40;;;;;;;-2.23;63.68;94682.41;5067845;28;20654;-77
2022/01/22 09:17:55;;;;;;;1.20;1.08;;;;;;;-2.24;63.37;94678.16;5071734;28;20242;-77
2022/01/22 09:20:42;;;;;;;1.50;1.23;;;;;;;-2.55;65.37;94684.09;5070754;28;20223;-78
2022/01/22 09:23:11;;;;;;;1.58;1.10;;;;;;;-2.36;64.79;94672.16;5068541;28;20280;-78
2022/01/22 09:25:39;;;;;;;0.63;0.63;;;;;;;-2.07;62.94;94664.03;5070433;28;20221;-76
2022/01/22 09:28:10;;;;;;;3.97;1.23;;;;;;;-1.62;62.62;94655.72;5069389;28;20199;-76
2022/01/22 09:30:39;;;;;;;2.40;1.27;;;;;;;-1.76;63.89;94654.53;5070216;28;20218;-77
2022/01/22 09:33:06;;;;;;;4.00;1.17;;;;;;;-1.67;65.00;94651.19;5071831;28;20223;-77
2022/01/22 09:35:33;;;;;;;3.17;1.55;;;;;;;-1.91;61.95;94668.44;5073469;28;20198;-77
2022/01/22 09:38:00;;;;;;;2.50;1.17;;;;;;;-1.92;62.08;94654.41;5069799;28;20226;-76
2022/01/22 09:40:28;;;;;;;3.13;1.55;;;;;;;-1.85;61.88;94651.53;5069474;28;20226;-75
2022/01/22 09:42:56;;;;;;;5.13;1.90;;;;;;;-1.79;62.74;94650.53;5074116;28;20229;-77
2022/01/22 09:45:23;;;;;;;3.65;1.48;;;;;;;-2.05;61.48;94636.19;5070253;28;20276;-79
2022/01/22 09:47:51;;;;;;;2.67;1.25;;;;;;;-1.98;61.27;94625.38;5071058;28;20241;-75
2022/01/22 09:50:19;;;;;;;1.33;0.98;;;;;;;-1.99;62.50;94621.13;5071489;28;20215;-78
2022/01/22 09:52:47;;;;;;;0.90;0.75;;;;;;;-1.61;61.58;94610.34;5069406;28;20198;-78
2022/01/22 09:55:14;;;;;;;0.95;0.63;;;;;;;-1.59;62.76;94608.25;5070732;28;20297;-76
2022/01/22 09:57:41;;;;;;;1.60;1.05;;;;;;;-1.32;59.07;94600.22;5068537;28;20670;-75
2022/01/22 10:00:10;;;;;;;1.55;1.13;;;;;;;-1.24;60.80;94598.97;5067077;28;20195;-74
2022/01/22 10:02:41;;;;;;;2.83;1.58;;;;;;;-1.31;60.14;94587.75;5068958;28;20195;-74
2022/01/22 10:05:27;;;;;;;1.80;1.10;;;;;;;-1.67;60.33;94594.63;5070312;28;20251;-78
2022/01/22 10:07:54;;;;;;;3.58;1.58;;;;;;;-1.90;61.41;94601.84;5070583;28;20199;-76
2022/01/22 10:10:22;;;;;;;4.65;1.98;;;;;;;-1.87;62.52;94597.88;5068835;28;20577;-78
2022/01/22 10:12:51;;;;;;;2.38;1.20;;;;;;;-1.72;62.55;94603.34;5067764;28;20206;-75
2022/01/22 10:15:21;;;;;;;1.33;1.10;;;;;;;-1.80;63.43;94606.47;5067083;28;20717;-76
2022/01/22 10:17:49;;;;;;;2.30;1.45;;;;;;;-1.84;61.71;94597.38;5070167;28;20227;-73
2022/01/22 10:20:39;;;;;;;2.95;1.40;;;;;;;-1.90;62.63;94590.41;5070799;28;20249;-77
2022/01/22 10:23:16;;;;;;;2.42;1.25;;;;;;;-2.08;61.36;94580.16;5083539;28;20190;-79
2022/01/22 10:25:48;;;;;;;1.88;1.38;;;;;;;-2.24;62.36;94589.81;5070012;28;20440;-77
2022/01/22 10:28:21;;;;;;;1.45;1.13;;;;;;;-1.79;62.25;94581.53;5059376;28;20642;-77
2022/01/22 10:30:51;;;;;;;3.15;2.25;;;;;;;-1.72;61.57;94571.47;5069949;28;20256;-79
2022/01/22 10:33:26;;;;;;;1.17;0.90;;;;;;;-1.47;62.10;94579.66;5070379;28;20227;-76
2022/01/22 10:35:55;;;;;;;1.20;0.98;;;;;;;-1.46;60.93;94575.94;5069606;28;20297;-77
2022/01/22 10:38:22;;;;;;;2.47;1.20;;;;;;;-1.16;60.05;94569.25;5079468;28;20313;-76
2022/01/22 10:40:50;;;;;;;1.77;1.20;;;;;;;-1.17;60.45;94568.47;5086225;28;20322;-79
2022/01/22 10:43:22;;;;;;;1.33;1.08;;;;;;;-1.32;59.95;94562.22;5069736;28;20223;-76
2022/01/22 10:46:06;;;;;;;3.67;1.13;;;;;;;-1.10;59.79;94563.72;5083264;28;20712;-77
2022/01/22 10:48:33;;;;;;;1.80;1.23;;;;;;;-0.57;61.42;94550.44;5070492;28;20269;-75
2022/01/22 10:51:07;;;;;;;2.25;1.10;;;;;;;-0.05;58.81;94548.47;5070629;28;20210;-77
2022/01/22 10:53:41;;;;;;;2.00;0.90;;;;;;;-0.23;55.17;94546.28;5064467;28;20194;-77
2022/01/22 10:56:09;;;;;;;1.80;1.27;;;;;;;-0.66;56.11;94528.03;5070497;28;20203;-75
2022/01/22 10:58:35;;;;;;;2.38;1.30;;;;;;;-0.64;56.36;94544.53;5070254;28;21233;-76
2022/01/22 11:01:06;;;;;;;1.10;0.75;;;;;;;-0.67;55.25;94550.38;5069834;28;20231;-76
2022/01/22 11:03:33;;;;;;;4.40;2.42;;;;;;;-0.65;56.61;94543.75;5070373;28;20646;-76
2022/01/22 11:06:05;;;;;;;3.50;1.23;;;;;;;-0.44;55.99;94547.28;5070507;28;20647;-75
2022/01/22 11:08:34;;;;;;;0.80;0.80;;;;;;;-0.79;55.13;94538.09;5070570;28;20195;-75
2022/01/22 11:11:02;;;;;;;1.23;0.95;;;;;;;-0.56;56.99;94528.09;5070024;28;20314;-74
2022/01/22 11:13:29;;;;;;;1.58;1.10;;;;;;;-0.33;55.43;94535.63;5069662;28;20198;-76
2022/01/22 11:15:57;;;;;;;2.25;1.27;;;;;;;-0.27;55.15;94529.22;5082193;28;20222;-77
2022/01/22 11:18:25;;;;;;;2.58;1.10;;;;;;;-0.23;55.26;94525.00;5076575;28;20249;-77
2022/01/22 11:20:53;;;;;;;1.52;1.13;;;;;;;-0.01;54.93;94527.44;5077969;28;20230;-75
2022/01/22 11:23:22;;;;;;;2.38;1.52;;;;;;;0.48;53.77;94519.75;5070698;28;20198;-75
2022/01/22 11:25:51;;;;;;;3.38;1.00;;;;;;;0.93;54.76;94515.44;5071882;28;20203;-77
2022/01/22 11:28:21;;;;;;;1.70;0.85;;;;;;;0.93;54.30;94502.91;5061080;28;20214;-74
2022/01/22 11:30:49;;;;;;;1.42;1.23;;;;;;;1.07;53.06;94511.13;5072346;28;20573;-77
2022/01/22 11:33:21;;;;;;;1.63;1.10;;;;;;;0.58;53.77;94514.41;5072355;28;20245;-75
2022/01/22 11:36:01;;;;;;;2.03;1.25;;;;;;;0.33;53.37;94512.56;5070118;28;20226;-76
2022/01/22 11:38:30;;;;;;;3.05;1.52;;;;;;;0.63;54.29;94511.75;5081335;28;20553;-76
2022/01/22 11:41:07;;;;;;;2.30;1.48;;;;;;;0.73;53.33;94510.94;5093015;28;20252;-76
2022/01/22 11:43:58;;;;;;;1.63;0.98;;;;;;;0.52;54.23;94515.50;5092476;28;20233;-74
2022/01/22 11:46:29;;;;;;;1.92;1.50;;;;;;;0.31;55.20;94508.56;5062290;28;20230;-75
2022/01/22 11:49:16;;;;;;;1.23;0.90;;;;;;;-0.45;56.21;94519.09;5086838;28;20593;-76
2022/01/22 11:51:44;;;;;;;4.65;1.38;;;;;;;-0.22;57.38;94518.63;5073443;28;20199;-76
2022/01/22 11:54:12;;;;;;;4.60;1.75;;;;;;;-0.38;59.28;94527.59;5072251;28;20745;-75
2022/01/22 11:56:46;;;;;;;2.65;1.15;;;;;;;-0.54;57.44;94517.97;5072422;28;20207;-76
2022/01/22 11:59:34;;;;;;;2.63;1.58;;;;;;;-0.59;59.19;94512.66;5072845;28;20207;-73
2022/01/22 12:02:04;;;;;;;2.15;1.88;;;;;;;-0.01;59.35;94516.81;5074832;28;20573;-74
2022/01/22 12:04:53;;;;;;;3.67;1.20;;;;;;;-0.38;59.60;94507.13;5093500;28;20701;-74
2022/01/22 12:07:22;;;;;;;2.22;1.40;;;;;;;-1.00;59.69;94499.19;5051712;28;20277;-78
2022/01/22 12:10:22;;;;;;;2.03;1.30;;;;;;;-0.52;60.97;94510.53;5067340;28;20199;-76
2022/01/22 12:15:53;;;;;;;2.03;1.20;;;;;;;-0.56;59.74;94493.53;5061497;28;20230;-75
2022/01/22 12:18:30;;;;;;;2.45;1.30;;;;;;;-0.57;60.31;94502.56;5072510;28;20321;-75
2022/01/22 12:23:57;;;;;;;4.30;1.60;;;;;;;-0.91;62.68;94494.97;4990920;28;20251;-75
2022/01/22 12:26:50;;;;;;;2.40;1.42;;;;;;;-1.52;63.84;94480.56;5003967;28;20352;-74
2022/01/22 12:29:38;;;;;;;1.30;1.05;;;;;;;-1.27;64.10;94504.63;5043955;28;20209;-77
2022/01/22 12:32:29;;;;;;;4.03;1.60;;;;;;;-1.29;64.88;94505.94;5083929;28;20644;-74
2022/01/22 12:35:10;;;;;;;2.50;1.58;;;;;;;-0.92;67.63;94506.66;5060751;28;20691;-75
2022/01/22 12:37:48;;;;;;;2.58;1.92;;;;;;;-1.01;66.90;94510.88;5072301;28;20272;-74
2022/01/22 12:40:27;;;;;;;2.55;1.60;;;;;;;-1.06;67.53;94510.84;5072455;28;20272;-74
2022/01/22 12:43:03;;;;;;;2.67;1.60;;;;;;;-0.92;66.89;94501.34;5072461;28;20690;-75
2022/01/22 12:45:33;;;;;;;3.17;1.08;;;;;;;-0.51;65.86;94496.19;5071867;28;20219;-75
2022/01/22 12:48:03;;;;;;;1.73;1.20;;;;;;;-0.83;66.48;94499.00;5072417;28;20229;-76
2022/01/22 12:50:32;;;;;;;6.38;1.63;;;;;;;-0.67;65.57;94491.88;5088243;28;20206;-75
2022/01/22 12:53:03;;;;;;;4.88;2.38;;;;;;;-0.68;66.54;94500.94;5091565;28;20226;-75
2022/01/22 12:58:33;;;;;;;1.25;1.13;;;;;;;-0.41;66.16;94481.03;5069624;28;20558;-74
2022/01/22 13:01:18;;;;;;;2.30;1.75;;;;;;;-0.83;65.80;94478.53;5061044;28;20203;-74
2022/01/22 13:03:47;;;;;;;1.90;1.25;;;;;;;-0.98;66.21;94470.50;5071330;28;20257;-73
2022/01/22 13:06:15;;;;;;;4.10;1.38;;;;;;;-0.92;67.58;94469.44;5071495;28;20214;-77